Airfield :







YOU CAN JOIN US ON...

 
LOGIN :

Register | Disclaimer

   EN    FR    IT 

 









Legend :    VFR   Marginal VFR   IFR   Intensive IFR   Very Intensive IFR
Visi :
Ceiling :
>= 8 km
>= 3000ft
5 to 8 km
1000 to 3000 ft
1500m to 5 km
500 to 1000 ft
800 to 1500m
200 to 500 ft
< 800m
< 200 ft
Symbols :   Thunderstorms  Fog  Heavy snow  Heavy precipitations  Wind > 20 kt






- Airport Elevation : 270 ft
- IATA code : YMX


CYMX - Montreal International Mirabel

CURRENT METAR :
  • 080400Z 03002KT 25SM SCT230 02/M09 A2969 RMK CI3 SLP057

EXPIRED METARs :
  • 080300Z 01002KT 25SM SCT240 04/M09 A2970 RMK CI3 SLP062
  • 080200Z VRB02KT 25SM FEW250 04/M09 A2972 RMK CI2 SLP068

TAF TAF CYMX
Valid from the 08 at 00:00 until the 09 at 00:00 UTC


072338Z 0800/0824 31006KT P6SM FEW250
FM080200 VRB03KT P6SM SCT240
FM080900 04005KT P6SM BKN160 BKN220
FM081500 04008KT P6SM OVC120
FM082200 05005KT P6SM OVC080 RMK NXT FCST BY 080600Z



MET'MAP, your aeronautical weather chart ! - Copyright ORBIFLY December 2007 - Disclaimer

ORBIFLY MET'MAP TEAM :

Programming & Development : Alexandra Zaïnal
Concept & original design : Baudouin d'Aumeries
Assistance for programming : Marc-Olivier Méhu
Technical & hardware support : Manuel Goepfert

Contact : metmap@orbifly.com




SOURCES & CREDITS :

   NOAA